sensor_id;sensor_type;location;lat;lon;timestamp;P1;durP1;ratioP1;P2;durP2;ratioP2
51995;SDS011;38010;53.264;6.592;2023-11-21T00:00:33;5.85;;;2.25;;
51995;SDS011;38010;53.264;6.592;2023-11-21T00:02:59;10.50;;;3.00;;
51995;SDS011;38010;53.264;6.592;2023-11-21T00:05:25;9.00;;;2.30;;
51995;SDS011;38010;53.264;6.592;2023-11-21T00:07:51;7.85;;;1.98;;
51995;SDS011;38010;53.264;6.592;2023-11-21T00:10:16;4.47;;;1.92;;
51995;SDS011;38010;53.264;6.592;2023-11-21T00:12:42;4.82;;;2.53;;
51995;SDS011;38010;53.264;6.592;2023-11-21T00:15:08;6.78;;;2.50;;
51995;SDS011;38010;53.264;6.592;2023-11-21T00:17:36;7.97;;;2.35;;
51995;SDS011;38010;53.264;6.592;2023-11-21T00:20:05;9.13;;;3.03;;
51995;SDS011;38010;53.264;6.592;2023-11-21T00:22:36;8.82;;;2.58;;
51995;SDS011;38010;53.264;6.592;2023-11-21T00:25:02;6.38;;;2.10;;
51995;SDS011;38010;53.264;6.592;2023-11-21T00:27:29;6.88;;;2.55;;
51995;SDS011;38010;53.264;6.592;2023-11-21T00:29:55;5.72;;;2.58;;
51995;SDS011;38010;53.264;6.592;2023-11-21T00:32:21;7.07;;;2.30;;
51995;SDS011;38010;53.264;6.592;2023-11-21T00:34:46;10.98;;;3.20;;
51995;SDS011;38010;53.264;6.592;2023-11-21T00:37:12;6.60;;;2.70;;
51995;SDS011;38010;53.264;6.592;2023-11-21T00:39:38;4.50;;;2.10;;
51995;SDS011;38010;53.264;6.592;2023-11-21T00:42:03;7.35;;;2.63;;
51995;SDS011;38010;53.264;6.592;2023-11-21T00:44:30;9.10;;;2.63;;
51995;SDS011;38010;53.264;6.592;2023-11-21T00:46:55;8.43;;;3.22;;
51995;SDS011;38010;53.264;6.592;2023-11-21T00:49:21;9.38;;;2.13;;
51995;SDS011;38010;53.264;6.592;2023-11-21T00:51:47;5.60;;;2.50;;
51995;SDS011;38010;53.264;6.592;2023-11-21T00:54:12;6.93;;;2.42;;
51995;SDS011;38010;53.264;6.592;2023-11-21T00:56:38;8.90;;;2.17;;
51995;SDS011;38010;53.264;6.592;2023-11-21T00:59:05;6.47;;;2.72;;
51995;SDS011;38010;53.264;6.592;2023-11-21T01:01:30;6.25;;;2.63;;
51995;SDS011;38010;53.264;6.592;2023-11-21T01:03:56;6.78;;;2.50;;
51995;SDS011;38010;53.264;6.592;2023-11-21T01:06:22;6.32;;;2.60;;
51995;SDS011;38010;53.264;6.592;2023-11-21T01:08:47;4.32;;;2.00;;
51995;SDS011;38010;53.264;6.592;2023-11-21T01:11:13;6.68;;;2.15;;
51995;SDS011;38010;53.264;6.592;2023-11-21T01:13:40;5.07;;;2.22;;
51995;SDS011;38010;53.264;6.592;2023-11-21T01:16:07;6.47;;;2.33;;
51995;SDS011;38010;53.264;6.592;2023-11-21T01:18:33;7.78;;;2.38;;
51995;SDS011;38010;53.264;6.592;2023-11-21T01:21:00;4.35;;;1.77;;
51995;SDS011;38010;53.264;6.592;2023-11-21T01:23:26;4.88;;;2.25;;
51995;SDS011;38010;53.264;6.592;2023-11-21T01:25:52;6.72;;;2.30;;
51995;SDS011;38010;53.264;6.592;2023-11-21T01:28:18;5.03;;;2.25;;
51995;SDS011;38010;53.264;6.592;2023-11-21T01:30:44;7.10;;;2.33;;
51995;SDS011;38010;53.264;6.592;2023-11-21T01:33:11;5.40;;;2.17;;
51995;SDS011;38010;53.264;6.592;2023-11-21T01:35:36;5.95;;;2.25;;
51995;SDS011;38010;53.264;6.592;2023-11-21T01:38:02;4.50;;;2.42;;
51995;SDS011;38010;53.264;6.592;2023-11-21T01:40:29;5.63;;;2.10;;
51995;SDS011;38010;53.264;6.592;2023-11-21T01:42:55;6.43;;;2.33;;
51995;SDS011;38010;53.264;6.592;2023-11-21T01:45:22;7.40;;;2.13;;
51995;SDS011;38010;53.264;6.592;2023-11-21T01:47:50;11.00;;;2.75;;
51995;SDS011;38010;53.264;6.592;2023-11-21T01:50:16;3.45;;;2.03;;
51995;SDS011;38010;53.264;6.592;2023-11-21T01:52:43;5.95;;;2.53;;
51995;SDS011;38010;53.264;6.592;2023-11-21T01:55:11;4.30;;;2.03;;
51995;SDS011;38010;53.264;6.592;2023-11-21T01:57:40;6.55;;;2.13;;
51995;SDS011;38010;53.264;6.592;2023-11-21T02:00:06;5.63;;;2.95;;
51995;SDS011;38010;53.264;6.592;2023-11-21T02:02:42;5.43;;;2.17;;
51995;SDS011;38010;53.264;6.592;2023-11-21T02:05:09;6.38;;;2.42;;
51995;SDS011;38010;53.264;6.592;2023-11-21T02:07:38;4.72;;;2.08;;
51995;SDS011;38010;53.264;6.592;2023-11-21T02:10:05;6.95;;;2.15;;
51995;SDS011;38010;53.264;6.592;2023-11-21T02:12:32;6.47;;;2.22;;
51995;SDS011;38010;53.264;6.592;2023-11-21T02:14:58;5.30;;;2.40;;
51995;SDS011;38010;53.264;6.592;2023-11-21T02:17:23;6.30;;;2.80;;
51995;SDS011;38010;53.264;6.592;2023-11-21T02:19:50;5.53;;;2.10;;
51995;SDS011;38010;53.264;6.592;2023-11-21T02:22:17;5.13;;;1.88;;
51995;SDS011;38010;53.264;6.592;2023-11-21T02:24:45;3.47;;;2.22;;
51995;SDS011;38010;53.264;6.592;2023-11-21T02:27:12;7.40;;;2.60;;
51995;SDS011;38010;53.264;6.592;2023-11-21T02:29:38;6.30;;;2.83;;
51995;SDS011;38010;53.264;6.592;2023-11-21T02:32:04;5.65;;;2.70;;
51995;SDS011;38010;53.264;6.592;2023-11-21T02:34:30;6.75;;;2.40;;
51995;SDS011;38010;53.264;6.592;2023-11-21T02:36:56;5.57;;;2.53;;
51995;SDS011;38010;53.264;6.592;2023-11-21T02:39:22;5.05;;;2.40;;
51995;SDS011;38010;53.264;6.592;2023-11-21T02:41:49;8.77;;;2.95;;
51995;SDS011;38010;53.264;6.592;2023-11-21T02:44:15;5.78;;;2.35;;
51995;SDS011;38010;53.264;6.592;2023-11-21T02:46:41;4.40;;;2.67;;
51995;SDS011;38010;53.264;6.592;2023-11-21T02:49:06;5.43;;;2.45;;
51995;SDS011;38010;53.264;6.592;2023-11-21T02:51:35;4.95;;;2.53;;
51995;SDS011;38010;53.264;6.592;2023-11-21T02:54:03;6.80;;;2.97;;
51995;SDS011;38010;53.264;6.592;2023-11-21T02:56:31;4.75;;;2.72;;
51995;SDS011;38010;53.264;6.592;2023-11-21T02:58:58;5.40;;;2.58;;
51995;SDS011;38010;53.264;6.592;2023-11-21T03:01:25;7.32;;;2.72;;
51995;SDS011;38010;53.264;6.592;2023-11-21T03:03:52;6.07;;;2.55;;
51995;SDS011;38010;53.264;6.592;2023-11-21T03:06:21;8.50;;;3.08;;
51995;SDS011;38010;53.264;6.592;2023-11-21T03:08:47;5.85;;;2.58;;
51995;SDS011;38010;53.264;6.592;2023-11-21T03:11:13;8.63;;;2.97;;
51995;SDS011;38010;53.264;6.592;2023-11-21T03:13:42;5.75;;;2.60;;
51995;SDS011;38010;53.264;6.592;2023-11-21T03:16:08;6.50;;;2.25;;
51995;SDS011;38010;53.264;6.592;2023-11-21T03:18:35;7.05;;;3.00;;
51995;SDS011;38010;53.264;6.592;2023-11-21T03:21:07;5.13;;;2.38;;
51995;SDS011;38010;53.264;6.592;2023-11-21T03:23:34;6.00;;;2.78;;
51995;SDS011;38010;53.264;6.592;2023-11-21T03:26:01;7.93;;;2.88;;
51995;SDS011;38010;53.264;6.592;2023-11-21T03:28:27;5.70;;;3.22;;
51995;SDS011;38010;53.264;6.592;2023-11-21T03:30:53;5.20;;;2.30;;
51995;SDS011;38010;53.264;6.592;2023-11-21T03:33:19;6.53;;;2.90;;
51995;SDS011;38010;53.264;6.592;2023-11-21T03:35:45;6.07;;;2.80;;
51995;SDS011;38010;53.264;6.592;2023-11-21T03:38:11;7.82;;;3.17;;
51995;SDS011;38010;53.264;6.592;2023-11-21T03:40:37;6.32;;;2.95;;
51995;SDS011;38010;53.264;6.592;2023-11-21T03:43:04;7.30;;;2.85;;
51995;SDS011;38010;53.264;6.592;2023-11-21T03:45:31;7.13;;;3.00;;
51995;SDS011;38010;53.264;6.592;2023-11-21T03:47:57;6.90;;;2.90;;
51995;SDS011;38010;53.264;6.592;2023-11-21T03:50:22;6.45;;;2.85;;
51995;SDS011;38010;53.264;6.592;2023-11-21T03:52:48;7.03;;;2.85;;
51995;SDS011;38010;53.264;6.592;2023-11-21T03:55:14;5.07;;;2.67;;
51995;SDS011;38010;53.264;6.592;2023-11-21T03:57:40;7.63;;;2.58;;
51995;SDS011;38010;53.264;6.592;2023-11-21T04:00:06;7.53;;;2.85;;
51995;SDS011;38010;53.264;6.592;2023-11-21T04:02:34;7.28;;;2.92;;
51995;SDS011;38010;53.264;6.592;2023-11-21T04:05:00;6.93;;;3.03;;
51995;SDS011;38010;53.264;6.592;2023-11-21T04:07:26;7.20;;;3.50;;
51995;SDS011;38010;53.264;6.592;2023-11-21T04:09:52;5.18;;;2.55;;
51995;SDS011;38010;53.264;6.592;2023-11-21T04:12:18;6.43;;;2.88;;
51995;SDS011;38010;53.264;6.592;2023-11-21T04:14:44;6.95;;;3.17;;
51995;SDS011;38010;53.264;6.592;2023-11-21T04:17:10;6.88;;;3.08;;
51995;SDS011;38010;53.264;6.592;2023-11-21T04:19:36;7.13;;;2.80;;
51995;SDS011;38010;53.264;6.592;2023-11-21T04:22:01;7.03;;;3.03;;
51995;SDS011;38010;53.264;6.592;2023-11-21T04:24:27;7.57;;;3.50;;
51995;SDS011;38010;53.264;6.592;2023-11-21T04:26:53;6.45;;;3.20;;
51995;SDS011;38010;53.264;6.592;2023-11-21T04:29:18;7.35;;;2.92;;
51995;SDS011;38010;53.264;6.592;2023-11-21T04:31:44;7.38;;;3.25;;
51995;SDS011;38010;53.264;6.592;2023-11-21T04:34:10;4.75;;;2.90;;
51995;SDS011;38010;53.264;6.592;2023-11-21T04:36:35;6.88;;;3.38;;
51995;SDS011;38010;53.264;6.592;2023-11-21T04:39:01;3.97;;;2.17;;
51995;SDS011;38010;53.264;6.592;2023-11-21T04:41:27;5.97;;;2.40;;
51995;SDS011;38010;53.264;6.592;2023-11-21T04:43:53;10.68;;;3.08;;
51995;SDS011;38010;53.264;6.592;2023-11-21T04:46:19;6.85;;;2.95;;
51995;SDS011;38010;53.264;6.592;2023-11-21T04:48:44;8.98;;;3.05;;
51995;SDS011;38010;53.264;6.592;2023-11-21T04:51:10;7.15;;;3.03;;
51995;SDS011;38010;53.264;6.592;2023-11-21T04:53:37;8.75;;;3.78;;
51995;SDS011;38010;53.264;6.592;2023-11-21T04:56:04;7.70;;;3.08;;
51995;SDS011;38010;53.264;6.592;2023-11-21T04:58:30;8.98;;;3.05;;
51995;SDS011;38010;53.264;6.592;2023-11-21T05:00:57;4.70;;;2.17;;
51995;SDS011;38010;53.264;6.592;2023-11-21T05:03:22;7.22;;;2.78;;
51995;SDS011;38010;53.264;6.592;2023-11-21T05:05:48;7.38;;;3.15;;
51995;SDS011;38010;53.264;6.592;2023-11-21T05:08:14;4.93;;;3.00;;
51995;SDS011;38010;53.264;6.592;2023-11-21T05:10:40;6.05;;;2.40;;
51995;SDS011;38010;53.264;6.592;2023-11-21T05:13:06;6.68;;;3.63;;
51995;SDS011;38010;53.264;6.592;2023-11-21T05:15:35;6.13;;;3.33;;
51995;SDS011;38010;53.264;6.592;2023-11-21T05:18:02;3.85;;;2.30;;
51995;SDS011;38010;53.264;6.592;2023-11-21T05:20:28;5.70;;;3.13;;
51995;SDS011;38010;53.264;6.592;2023-11-21T05:22:53;7.75;;;3.17;;
51995;SDS011;38010;53.264;6.592;2023-11-21T05:25:19;6.40;;;3.20;;
51995;SDS011;38010;53.264;6.592;2023-11-21T05:27:45;7.47;;;3.05;;
51995;SDS011;38010;53.264;6.592;2023-11-21T05:30:12;6.03;;;3.17;;
51995;SDS011;38010;53.264;6.592;2023-11-21T05:32:39;6.85;;;3.17;;
51995;SDS011;38010;53.264;6.592;2023-11-21T05:35:08;5.22;;;2.83;;
51995;SDS011;38010;53.264;6.592;2023-11-21T05:37:40;6.53;;;3.33;;
51995;SDS011;38010;53.264;6.592;2023-11-21T05:40:07;5.05;;;3.15;;
51995;SDS011;38010;53.264;6.592;2023-11-21T05:42:33;10.18;;;3.63;;
51995;SDS011;38010;53.264;6.592;2023-11-21T05:45:00;5.45;;;2.85;;
51995;SDS011;38010;53.264;6.592;2023-11-21T05:47:39;5.45;;;3.15;;
51995;SDS011;38010;53.264;6.592;2023-11-21T05:50:07;7.68;;;3.03;;
51995;SDS011;38010;53.264;6.592;2023-11-21T05:52:40;5.55;;;3.20;;
51995;SDS011;38010;53.264;6.592;2023-11-21T05:55:07;5.78;;;3.00;;
51995;SDS011;38010;53.264;6.592;2023-11-21T05:57:36;5.80;;;2.70;;
51995;SDS011;38010;53.264;6.592;2023-11-21T06:00:05;5.32;;;3.00;;
51995;SDS011;38010;53.264;6.592;2023-11-21T06:02:56;5.30;;;3.47;;
51995;SDS011;38010;53.264;6.592;2023-11-21T06:05:23;6.40;;;3.42;;
51995;SDS011;38010;53.264;6.592;2023-11-21T06:07:50;5.47;;;3.47;;
51995;SDS011;38010;53.264;6.592;2023-11-21T06:10:19;7.47;;;4.10;;
51995;SDS011;38010;53.264;6.592;2023-11-21T06:12:45;6.20;;;3.80;;
51995;SDS011;38010;53.264;6.592;2023-11-21T06:15:11;5.70;;;3.17;;
51995;SDS011;38010;53.264;6.592;2023-11-21T06:17:38;5.95;;;3.22;;
51995;SDS011;38010;53.264;6.592;2023-11-21T06:20:05;7.78;;;3.45;;
51995;SDS011;38010;53.264;6.592;2023-11-21T06:22:36;7.03;;;3.45;;
51995;SDS011;38010;53.264;6.592;2023-11-21T06:25:07;8.50;;;4.65;;
51995;SDS011;38010;53.264;6.592;2023-11-21T06:27:43;11.90;;;5.25;;
51995;SDS011;38010;53.264;6.592;2023-11-21T06:30:10;11.75;;;6.15;;
51995;SDS011;38010;53.264;6.592;2023-11-21T06:32:37;12.75;;;5.32;;
51995;SDS011;38010;53.264;6.592;2023-11-21T06:35:03;14.75;;;5.60;;
51995;SDS011;38010;53.264;6.592;2023-11-21T06:37:30;14.43;;;5.80;;
51995;SDS011;38010;53.264;6.592;2023-11-21T06:39:57;15.25;;;4.75;;
51995;SDS011;38010;53.264;6.592;2023-11-21T06:42:23;15.40;;;5.63;;
51995;SDS011;38010;53.264;6.592;2023-11-21T06:44:50;9.88;;;5.03;;
51995;SDS011;38010;53.264;6.592;2023-11-21T06:47:22;11.03;;;4.97;;
51995;SDS011;38010;53.264;6.592;2023-11-21T06:49:51;14.23;;;4.93;;
51995;SDS011;38010;53.264;6.592;2023-11-21T06:52:21;8.18;;;4.35;;
51995;SDS011;38010;53.264;6.592;2023-11-21T06:54:47;9.80;;;4.90;;
51995;SDS011;38010;53.264;6.592;2023-11-21T06:57:14;8.77;;;5.50;;
51995;SDS011;38010;53.264;6.592;2023-11-21T06:59:40;10.15;;;5.65;;
51995;SDS011;38010;53.264;6.592;2023-11-21T07:02:06;10.60;;;4.75;;
51995;SDS011;38010;53.264;6.592;2023-11-21T07:04:32;10.98;;;5.28;;
51995;SDS011;38010;53.264;6.592;2023-11-21T07:06:59;9.15;;;5.88;;
51995;SDS011;38010;53.264;6.592;2023-11-21T07:09:24;9.45;;;4.50;;
51995;SDS011;38010;53.264;6.592;2023-11-21T07:11:54;8.10;;;4.85;;
51995;SDS011;38010;53.264;6.592;2023-11-21T07:14:20;7.97;;;5.13;;
51995;SDS011;38010;53.264;6.592;2023-11-21T07:16:46;10.70;;;6.03;;
51995;SDS011;38010;53.264;6.592;2023-11-21T07:19:12;9.13;;;4.82;;
51995;SDS011;38010;53.264;6.592;2023-11-21T07:21:39;9.07;;;5.60;;
51995;SDS011;38010;53.264;6.592;2023-11-21T07:24:05;9.40;;;5.70;;
51995;SDS011;38010;53.264;6.592;2023-11-21T07:26:32;8.20;;;5.07;;
51995;SDS011;38010;53.264;6.592;2023-11-21T07:29:00;10.75;;;5.93;;
51995;SDS011;38010;53.264;6.592;2023-11-21T07:31:27;9.63;;;6.10;;
51995;SDS011;38010;53.264;6.592;2023-11-21T07:33:54;8.40;;;5.32;;
51995;SDS011;38010;53.264;6.592;2023-11-21T07:36:22;8.50;;;5.68;;
51995;SDS011;38010;53.264;6.592;2023-11-21T07:38:48;8.98;;;5.60;;
51995;SDS011;38010;53.264;6.592;2023-11-21T07:41:14;10.02;;;5.88;;
51995;SDS011;38010;53.264;6.592;2023-11-21T07:43:44;8.95;;;5.72;;
51995;SDS011;38010;53.264;6.592;2023-11-21T07:46:10;9.68;;;5.60;;
51995;SDS011;38010;53.264;6.592;2023-11-21T07:48:37;10.40;;;6.20;;
51995;SDS011;38010;53.264;6.592;2023-11-21T07:51:04;8.38;;;5.35;;
51995;SDS011;38010;53.264;6.592;2023-11-21T07:53:30;8.30;;;5.22;;
51995;SDS011;38010;53.264;6.592;2023-11-21T07:55:56;9.02;;;5.20;;
51995;SDS011;38010;53.264;6.592;2023-11-21T07:58:22;8.13;;;5.68;;
51995;SDS011;38010;53.264;6.592;2023-11-21T08:00:49;7.80;;;5.20;;
51995;SDS011;38010;53.264;6.592;2023-11-21T08:03:15;6.90;;;5.40;;
51995;SDS011;38010;53.264;6.592;2023-11-21T08:05:41;9.27;;;5.85;;
51995;SDS011;38010;53.264;6.592;2023-11-21T08:08:08;9.63;;;6.55;;
51995;SDS011;38010;53.264;6.592;2023-11-21T08:10:34;7.47;;;5.45;;
51995;SDS011;38010;53.264;6.592;2023-11-21T08:13:00;8.07;;;5.55;;
51995;SDS011;38010;53.264;6.592;2023-11-21T08:15:27;8.35;;;5.70;;
51995;SDS011;38010;53.264;6.592;2023-11-21T08:17:52;8.10;;;5.32;;
51995;SDS011;38010;53.264;6.592;2023-11-21T08:20:18;7.72;;;5.93;;
51995;SDS011;38010;53.264;6.592;2023-11-21T08:22:44;8.80;;;5.10;;
51995;SDS011;38010;53.264;6.592;2023-11-21T08:25:10;10.68;;;5.30;;
51995;SDS011;38010;53.264;6.592;2023-11-21T08:27:36;9.05;;;5.65;;
51995;SDS011;38010;53.264;6.592;2023-11-21T08:30:02;7.20;;;5.68;;
51995;SDS011;38010;53.264;6.592;2023-11-21T08:32:29;7.88;;;5.70;;
51995;SDS011;38010;53.264;6.592;2023-11-21T08:34:58;7.10;;;5.43;;
51995;SDS011;38010;53.264;6.592;2023-11-21T08:37:24;8.80;;;5.82;;
51995;SDS011;38010;53.264;6.592;2023-11-21T08:39:52;7.43;;;5.13;;
51995;SDS011;38010;53.264;6.592;2023-11-21T08:42:18;7.45;;;5.10;;
51995;SDS011;38010;53.264;6.592;2023-11-21T08:44:45;7.53;;;5.00;;
51995;SDS011;38010;53.264;6.592;2023-11-21T08:47:11;6.47;;;4.80;;
51995;SDS011;38010;53.264;6.592;2023-11-21T08:49:37;6.50;;;4.97;;
51995;SDS011;38010;53.264;6.592;2023-11-21T08:52:03;7.82;;;5.30;;
51995;SDS011;38010;53.264;6.592;2023-11-21T08:54:30;6.43;;;4.60;;
51995;SDS011;38010;53.264;6.592;2023-11-21T08:56:56;6.38;;;4.72;;
51995;SDS011;38010;53.264;6.592;2023-11-21T08:59:23;6.82;;;4.72;;
51995;SDS011;38010;53.264;6.592;2023-11-21T09:01:50;6.32;;;4.50;;
51995;SDS011;38010;53.264;6.592;2023-11-21T09:04:15;5.10;;;3.95;;
51995;SDS011;38010;53.264;6.592;2023-11-21T09:06:41;5.85;;;4.30;;
51995;SDS011;38010;53.264;6.592;2023-11-21T09:09:07;6.60;;;4.38;;
51995;SDS011;38010;53.264;6.592;2023-11-21T09:11:35;5.28;;;4.13;;
51995;SDS011;38010;53.264;6.592;2023-11-21T09:14:01;6.53;;;4.32;;
51995;SDS011;38010;53.264;6.592;2023-11-21T09:16:31;5.80;;;4.10;;
51995;SDS011;38010;53.264;6.592;2023-11-21T09:18:57;5.85;;;4.18;;
51995;SDS011;38010;53.264;6.592;2023-11-21T09:21:24;5.55;;;3.95;;
51995;SDS011;38010;53.264;6.592;2023-11-21T09:23:50;5.60;;;3.83;;
51995;SDS011;38010;53.264;6.592;2023-11-21T09:26:16;5.47;;;3.97;;
51995;SDS011;38010;53.264;6.592;2023-11-21T09:28:45;6.15;;;3.85;;
51995;SDS011;38010;53.264;6.592;2023-11-21T09:31:13;6.25;;;3.88;;
51995;SDS011;38010;53.264;6.592;2023-11-21T09:33:40;5.35;;;3.90;;
51995;SDS011;38010;53.264;6.592;2023-11-21T09:36:11;4.57;;;3.70;;
51995;SDS011;38010;53.264;6.592;2023-11-21T09:38:38;4.30;;;2.95;;
51995;SDS011;38010;53.264;6.592;2023-11-21T09:41:04;7.75;;;3.90;;
51995;SDS011;38010;53.264;6.592;2023-11-21T09:43:34;5.88;;;4.15;;
51995;SDS011;38010;53.264;6.592;2023-11-21T09:46:01;5.32;;;3.58;;
51995;SDS011;38010;53.264;6.592;2023-11-21T09:48:30;4.47;;;3.17;;
51995;SDS011;38010;53.264;6.592;2023-11-21T09:50:57;4.68;;;3.50;;
51995;SDS011;38010;53.264;6.592;2023-11-21T09:53:24;4.65;;;3.22;;
51995;SDS011;38010;53.264;6.592;2023-11-21T09:55:55;4.18;;;3.03;;
51995;SDS011;38010;53.264;6.592;2023-11-21T09:58:21;6.57;;;3.47;;
51995;SDS011;38010;53.264;6.592;2023-11-21T10:00:52;6.07;;;3.58;;
51995;SDS011;38010;53.264;6.592;2023-11-21T10:03:19;4.03;;;2.83;;
51995;SDS011;38010;53.264;6.592;2023-11-21T10:05:45;4.60;;;2.90;;
51995;SDS011;38010;53.264;6.592;2023-11-21T10:08:13;4.05;;;3.03;;
51995;SDS011;38010;53.264;6.592;2023-11-21T10:10:42;5.53;;;3.45;;
51995;SDS011;38010;53.264;6.592;2023-11-21T10:13:11;3.67;;;3.00;;
51995;SDS011;38010;53.264;6.592;2023-11-21T10:15:38;4.07;;;3.00;;
51995;SDS011;38010;53.264;6.592;2023-11-21T10:18:09;4.03;;;3.03;;
51995;SDS011;38010;53.264;6.592;2023-11-21T10:20:35;4.47;;;2.80;;
51995;SDS011;38010;53.264;6.592;2023-11-21T10:23:03;4.30;;;2.97;;
51995;SDS011;38010;53.264;6.592;2023-11-21T10:25:32;4.78;;;3.10;;
51995;SDS011;38010;53.264;6.592;2023-11-21T10:28:01;4.38;;;3.15;;
51995;SDS011;38010;53.264;6.592;2023-11-21T10:30:37;4.72;;;2.95;;
51995;SDS011;38010;53.264;6.592;2023-11-21T10:33:04;4.95;;;3.03;;
51995;SDS011;38010;53.264;6.592;2023-11-21T10:35:42;3.80;;;2.63;;
51995;SDS011;38010;53.264;6.592;2023-11-21T10:38:12;3.75;;;2.65;;
51995;SDS011;38010;53.264;6.592;2023-11-21T10:40:39;3.83;;;3.05;;
51995;SDS011;38010;53.264;6.592;2023-11-21T10:43:07;5.05;;;2.92;;
51995;SDS011;38010;53.264;6.592;2023-11-21T10:45:38;3.72;;;2.85;;
51995;SDS011;38010;53.264;6.592;2023-11-21T10:48:05;3.92;;;2.70;;
51995;SDS011;38010;53.264;6.592;2023-11-21T10:50:33;4.70;;;3.10;;
51995;SDS011;38010;53.264;6.592;2023-11-21T10:53:03;4.65;;;3.20;;
51995;SDS011;38010;53.264;6.592;2023-11-21T10:55:30;4.00;;;2.38;;
51995;SDS011;38010;53.264;6.592;2023-11-21T10:57:58;3.88;;;2.90;;
51995;SDS011;38010;53.264;6.592;2023-11-21T11:00:27;3.90;;;2.65;;
51995;SDS011;38010;53.264;6.592;2023-11-21T11:02:54;3.50;;;2.45;;
51995;SDS011;38010;53.264;6.592;2023-11-21T11:05:21;5.60;;;3.15;;
51995;SDS011;38010;53.264;6.592;2023-11-21T11:07:51;4.53;;;3.17;;
51995;SDS011;38010;53.264;6.592;2023-11-21T11:10:28;3.88;;;2.85;;
51995;SDS011;38010;53.264;6.592;2023-11-21T11:12:57;4.13;;;2.97;;
51995;SDS011;38010;53.264;6.592;2023-11-21T11:15:27;4.15;;;2.97;;
51995;SDS011;38010;53.264;6.592;2023-11-21T11:17:53;3.58;;;2.92;;
51995;SDS011;38010;53.264;6.592;2023-11-21T11:20:23;5.20;;;2.88;;
51995;SDS011;38010;53.264;6.592;2023-11-21T11:22:59;5.10;;;3.42;;
51995;SDS011;38010;53.264;6.592;2023-11-21T11:32:52;3.45;;;2.80;;
51995;SDS011;38010;53.264;6.592;2023-11-21T11:34:47;4.05;;;2.88;;
51995;SDS011;38010;53.264;6.592;2023-11-21T11:37:35;4.20;;;2.65;;
51995;SDS011;38010;53.264;6.592;2023-11-21T11:40:01;4.35;;;3.08;;
51995;SDS011;38010;53.264;6.592;2023-11-21T11:42:32;4.20;;;3.00;;
51995;SDS011;38010;53.264;6.592;2023-11-21T11:44:58;3.10;;;2.75;;
51995;SDS011;38010;53.264;6.592;2023-11-21T11:47:27;4.05;;;2.60;;
51995;SDS011;38010;53.264;6.592;2023-11-21T11:49:59;3.78;;;2.75;;
51995;SDS011;38010;53.264;6.592;2023-11-21T11:55:05;3.53;;;2.65;;
51995;SDS011;38010;53.264;6.592;2023-11-21T11:57:35;3.75;;;2.60;;
51995;SDS011;38010;53.264;6.592;2023-11-21T12:02:56;4.18;;;2.83;;
51995;SDS011;38010;53.264;6.592;2023-11-21T12:05:24;4.72;;;3.28;;
51995;SDS011;38010;53.264;6.592;2023-11-21T12:07:53;4.15;;;2.63;;
51995;SDS011;38010;53.264;6.592;2023-11-21T12:10:23;3.38;;;2.50;;
51995;SDS011;38010;53.264;6.592;2023-11-21T12:12:56;4.10;;;2.60;;
51995;SDS011;38010;53.264;6.592;2023-11-21T12:15:24;3.72;;;2.50;;
51995;SDS011;38010;53.264;6.592;2023-11-21T12:17:51;4.10;;;2.80;;
51995;SDS011;38010;53.264;6.592;2023-11-21T12:20:21;3.85;;;2.63;;
51995;SDS011;38010;53.264;6.592;2023-11-21T12:22:51;3.00;;;2.45;;
51995;SDS011;38010;53.264;6.592;2023-11-21T12:25:19;4.05;;;2.70;;
51995;SDS011;38010;53.264;6.592;2023-11-21T12:27:49;3.67;;;2.47;;
51995;SDS011;38010;53.264;6.592;2023-11-21T12:30:17;3.78;;;2.63;;
51995;SDS011;38010;53.264;6.592;2023-11-21T12:32:44;4.78;;;2.70;;
51995;SDS011;38010;53.264;6.592;2023-11-21T12:35:12;3.20;;;2.60;;
51995;SDS011;38010;53.264;6.592;2023-11-21T12:37:39;4.75;;;3.05;;
51995;SDS011;38010;53.264;6.592;2023-11-21T12:40:08;3.97;;;2.65;;
51995;SDS011;38010;53.264;6.592;2023-11-21T12:42:39;4.28;;;2.97;;
51995;SDS011;38010;53.264;6.592;2023-11-21T12:47:52;4.60;;;3.00;;
51995;SDS011;38010;53.264;6.592;2023-11-21T12:50:29;4.82;;;3.13;;
51995;SDS011;38010;53.264;6.592;2023-11-21T12:52:59;3.63;;;2.80;;
51995;SDS011;38010;53.264;6.592;2023-11-21T12:55:29;3.80;;;2.63;;
51995;SDS011;38010;53.264;6.592;2023-11-21T12:57:56;3.47;;;2.63;;
51995;SDS011;38010;53.264;6.592;2023-11-21T13:00:31;4.78;;;2.63;;
51995;SDS011;38010;53.264;6.592;2023-11-21T13:03:02;4.88;;;2.60;;
51995;SDS011;38010;53.264;6.592;2023-11-21T13:05:33;3.80;;;2.75;;
51995;SDS011;38010;53.264;6.592;2023-11-21T13:08:01;3.85;;;2.63;;
51995;SDS011;38010;53.264;6.592;2023-11-21T13:10:29;3.63;;;2.35;;
51995;SDS011;38010;53.264;6.592;2023-11-21T13:13:00;3.35;;;2.42;;
51995;SDS011;38010;53.264;6.592;2023-11-21T13:15:29;4.05;;;2.70;;
51995;SDS011;38010;53.264;6.592;2023-11-21T13:17:56;6.55;;;3.03;;
51995;SDS011;38010;53.264;6.592;2023-11-21T13:20:23;4.15;;;2.97;;
51995;SDS011;38010;53.264;6.592;2023-11-21T13:25:22;3.60;;;2.28;;
51995;SDS011;38010;53.264;6.592;2023-11-21T13:27:48;3.50;;;2.42;;
51995;SDS011;38010;53.264;6.592;2023-11-21T13:30:16;3.42;;;1.88;;
51995;SDS011;38010;53.264;6.592;2023-11-21T13:32:45;3.15;;;2.28;;
51995;SDS011;38010;53.264;6.592;2023-11-21T13:35:12;3.25;;;2.03;;
51995;SDS011;38010;53.264;6.592;2023-11-21T13:37:51;3.47;;;2.25;;
51995;SDS011;38010;53.264;6.592;2023-11-21T13:40:21;3.15;;;2.22;;
51995;SDS011;38010;53.264;6.592;2023-11-21T13:42:51;2.67;;;1.80;;
51995;SDS011;38010;53.264;6.592;2023-11-21T13:45:19;2.83;;;1.98;;
51995;SDS011;38010;53.264;6.592;2023-11-21T13:47:47;3.35;;;2.38;;
51995;SDS011;38010;53.264;6.592;2023-11-21T13:50:12;3.05;;;2.05;;
51995;SDS011;38010;53.264;6.592;2023-11-21T13:52:44;2.53;;;1.98;;
51995;SDS011;38010;53.264;6.592;2023-11-21T13:55:10;2.97;;;2.10;;
51995;SDS011;38010;53.264;6.592;2023-11-21T13:57:41;3.60;;;2.40;;
51995;SDS011;38010;53.264;6.592;2023-11-21T14:00:12;2.97;;;2.50;;
51995;SDS011;38010;53.264;6.592;2023-11-21T14:02:58;3.17;;;1.95;;
51995;SDS011;38010;53.264;6.592;2023-11-21T14:05:31;3.17;;;2.08;;
51995;SDS011;38010;53.264;6.592;2023-11-21T14:07:59;3.30;;;2.30;;
51995;SDS011;38010;53.264;6.592;2023-11-21T14:10:32;2.95;;;1.85;;
51995;SDS011;38010;53.264;6.592;2023-11-21T14:13:05;3.75;;;2.25;;
51995;SDS011;38010;53.264;6.592;2023-11-21T14:15:31;3.45;;;2.13;;
51995;SDS011;38010;53.264;6.592;2023-11-21T14:18:02;2.35;;;1.83;;
51995;SDS011;38010;53.264;6.592;2023-11-21T14:20:32;2.95;;;2.00;;
51995;SDS011;38010;53.264;6.592;2023-11-21T14:23:01;3.53;;;1.90;;
51995;SDS011;38010;53.264;6.592;2023-11-21T14:25:27;2.47;;;1.75;;
51995;SDS011;38010;53.264;6.592;2023-11-21T14:27:53;3.78;;;2.10;;
51995;SDS011;38010;53.264;6.592;2023-11-21T14:30:19;3.22;;;2.20;;
51995;SDS011;38010;53.264;6.592;2023-11-21T14:32:47;2.50;;;1.67;;
51995;SDS011;38010;53.264;6.592;2023-11-21T14:35:14;2.45;;;1.60;;
51995;SDS011;38010;53.264;6.592;2023-11-21T14:37:43;2.55;;;1.80;;
51995;SDS011;38010;53.264;6.592;2023-11-21T14:40:09;2.25;;;1.40;;
51995;SDS011;38010;53.264;6.592;2023-11-21T14:42:36;2.00;;;1.50;;
51995;SDS011;38010;53.264;6.592;2023-11-21T14:45:04;3.72;;;1.42;;
51995;SDS011;38010;53.264;6.592;2023-11-21T14:47:32;2.67;;;1.58;;
51995;SDS011;38010;53.264;6.592;2023-11-21T14:50:02;2.45;;;2.00;;
51995;SDS011;38010;53.264;6.592;2023-11-21T14:52:48;2.13;;;1.50;;
51995;SDS011;38010;53.264;6.592;2023-11-21T14:55:20;3.08;;;1.85;;
51995;SDS011;38010;53.264;6.592;2023-11-21T14:57:57;3.08;;;2.03;;
51995;SDS011;38010;53.264;6.592;2023-11-21T15:00:27;3.15;;;1.90;;
51995;SDS011;38010;53.264;6.592;2023-11-21T15:03:11;2.80;;;1.90;;
51995;SDS011;38010;53.264;6.592;2023-11-21T15:06:01;2.08;;;1.67;;
51995;SDS011;38010;53.264;6.592;2023-11-21T15:08:48;3.92;;;2.25;;